createdAt,value
2022-12-26T00:01:27.221Z,101368.95
2022-12-26T00:04:51.424Z,101375.62
2022-12-26T00:07:41.174Z,101376.86
2022-12-26T00:10:47.151Z,101366.59
2022-12-26T00:13:53.598Z,101368.68
2022-12-26T00:17:01.072Z,101365.39
2022-12-26T00:20:07.403Z,101366.95
2022-12-26T00:23:15.531Z,101360.23
2022-12-26T00:26:24.123Z,101359.04
2022-12-26T00:29:29.759Z,101366.92
2022-12-26T00:32:35.460Z,101372.94
2022-12-26T00:35:41.203Z,101376.99
2022-12-26T00:38:48.601Z,101372.56
2022-12-26T00:41:54.440Z,101365.65
2022-12-26T00:45:00.479Z,101366.59
2022-12-26T00:48:08.337Z,101363.63
2022-12-26T00:51:13.580Z,101359.48
2022-12-26T00:54:19.903Z,101356.25
2022-12-26T00:57:26.483Z,101360.99
2022-12-26T01:00:33.669Z,101369.78
2022-12-26T01:03:41.086Z,101364.95
2022-12-26T01:06:47.545Z,101352.98
2022-12-26T01:09:52.841Z,101356.83
2022-12-26T01:12:59.035Z,101352.37
2022-12-26T01:16:06.388Z,101353.36
2022-12-26T01:19:12.965Z,101356.05
2022-12-26T01:22:19.415Z,101360.38
2022-12-26T01:25:28.204Z,101361.26
2022-12-26T01:28:35.041Z,101369.67
2022-12-26T01:31:41.281Z,101369.77
2022-12-26T01:34:48.707Z,101374.97
2022-12-26T01:37:55.193Z,101378.81
2022-12-26T01:41:03.612Z,101374.76
2022-12-26T01:44:16.879Z,101379.37
2022-12-26T01:47:23.019Z,101389.58
2022-12-26T01:50:43.343Z,101384.17
2022-12-26T01:54:41.082Z,101383.34
2022-12-26T01:57:08.498Z,101395.99
2022-12-26T02:00:15.445Z,101386.42
2022-12-26T02:03:25.375Z,101391.55
2022-12-26T02:06:30.741Z,101391.66
2022-12-26T02:09:36.861Z,101402.37
2022-12-26T02:12:47.961Z,101402.84
2022-12-26T02:19:07.284Z,101394.58
2022-12-26T02:22:42.717Z,101389.37
2022-12-26T02:26:27.925Z,101393.06
2022-12-26T02:29:45.409Z,101384.79
2022-12-26T02:33:17.687Z,101388.07
2022-12-26T02:37:14.855Z,101382.08
2022-12-26T02:40:36.771Z,101383.86
2022-12-26T02:43:55.625Z,101383.39
2022-12-26T02:47:11.434Z,101381.88
2022-12-26T02:50:48.154Z,101382.45
2022-12-26T02:54:39.122Z,101387.66
2022-12-26T02:58:21.107Z,101391.05
2022-12-26T03:02:01.757Z,101398.27
2022-12-26T03:05:25.525Z,101406.67
2022-12-26T03:08:54.821Z,101403.66
2022-12-26T03:12:21.344Z,101406.94
2022-12-26T03:15:31.115Z,101412.08
2022-12-26T03:18:57.682Z,101412.55
2022-12-26T03:21:56.449Z,101413.13
2022-12-26T03:25:20.415Z,101419.48
2022-12-26T03:28:26.804Z,101425.66
2022-12-26T03:31:33.579Z,101424.09
2022-12-26T03:34:39.328Z,101427.37
2022-12-26T03:37:50.532Z,101425.13
2022-12-26T03:41:30.517Z,101429.49
2022-12-26T03:45:01.879Z,101427.73
2022-12-26T03:48:36.452Z,101435.33
2022-12-26T03:52:04.650Z,101432.27
2022-12-26T03:55:39.745Z,101436.13
2022-12-26T03:59:14.164Z,101443.87
2022-12-26T04:02:39.717Z,101438.16
2022-12-26T04:06:08.654Z,101435.30
2022-12-26T04:09:40.895Z,101438.99
2022-12-26T04:13:04.853Z,101446.06
2022-12-26T04:16:44.554Z,101441.37
2022-12-26T04:19:58.504Z,101431.64
2022-12-26T04:23:44.176Z,101446.91
2022-12-26T04:27:17.256Z,101448.05
2022-12-26T04:30:44.197Z,101446.53
2022-12-26T04:34:32.758Z,101454.06
2022-12-26T04:37:58.078Z,101451.92
2022-12-26T04:41:25.478Z,101458.58
2022-12-26T04:44:32.391Z,101456.29
2022-12-26T04:47:39.227Z,101453.86
2022-12-26T04:50:45.420Z,101450.08
2022-12-26T04:53:50.001Z,101458.19
2022-12-26T04:56:56.024Z,101452.30
2022-12-26T05:00:01.650Z,101460.89
2022-12-26T05:03:26.204Z,101462.24
2022-12-26T05:06:50.919Z,101459.91
2022-12-26T05:09:58.830Z,101466.98
2022-12-26T05:13:04.230Z,101476.91
2022-12-26T05:16:27.568Z,101487.80
2022-12-26T05:19:50.528Z,101480.36
2022-12-26T05:23:16.874Z,101480.06
2022-12-26T05:26:52.870Z,101477.73
2022-12-26T05:29:58.249Z,101479.48
2022-12-26T05:33:21.265Z,101487.59
2022-12-26T05:36:25.015Z,101484.89
2022-12-26T05:39:31.810Z,101488.17
2022-12-26T05:42:38.353Z,101489.15
2022-12-26T05:45:44.837Z,101489.05
2022-12-26T05:48:50.495Z,101497.05
2022-12-26T05:51:56.306Z,101500.16
2022-12-26T05:55:04.789Z,101504.05
2022-12-26T05:58:14.707Z,101500.56
2022-12-26T06:01:23.404Z,101501.03
2022-12-26T06:04:29.501Z,101500.63
2022-12-26T06:07:35.427Z,101494.95
2022-12-26T06:10:41.882Z,101493.98
2022-12-26T06:13:46.740Z,101495.91
2022-12-26T06:16:52.284Z,101507.67
2022-12-26T06:20:00.402Z,101502.46
2022-12-26T06:23:08.637Z,101512.02
2022-12-26T06:26:22.895Z,101502.46
2022-12-26T06:29:28.647Z,101500.34
2022-12-26T06:32:35.458Z,101515.20
2022-12-26T06:35:42.374Z,101515.78
2022-12-26T06:38:54.232Z,101523.49
2022-12-26T06:42:04.846Z,101519.64
2022-12-26T06:45:11.591Z,101521.97
2022-12-26T06:48:19.621Z,101523.70
2022-12-26T06:51:31.683Z,101525.83
2022-12-26T06:54:38.839Z,101522.72
2022-12-26T06:57:43.553Z,101526.88
2022-12-26T07:00:50.745Z,101530.93
2022-12-26T07:03:58.743Z,101535.36
2022-12-26T07:07:06.215Z,101534.78
2022-12-26T07:10:11.562Z,101537.42
2022-12-26T07:13:17.495Z,101540.80
2022-12-26T07:16:28.844Z,101545.32
2022-12-26T07:19:34.667Z,101552.58
2022-12-26T07:22:39.663Z,101553.06
2022-12-26T07:25:46.528Z,101554.99
2022-12-26T07:28:53.019Z,101557.19
2022-12-26T07:31:59.609Z,101551.99
2022-12-26T07:35:05.422Z,101555.27
2022-12-26T07:38:10.717Z,101551.39
2022-12-26T07:41:34.925Z,101555.14
2022-12-26T07:44:46.337Z,101547.23
2022-12-26T07:47:53.798Z,101557.44
2022-12-26T07:51:00.550Z,101550.20
2022-12-26T07:54:11.309Z,101556.76
2022-12-26T08:00:28.940Z,101552.40
2022-12-26T08:03:35.691Z,101558.99
2022-12-26T08:06:49.742Z,101558.59
2022-12-26T08:10:14.721Z,101565.52
2022-12-26T08:13:30.339Z,101563.79
2022-12-26T08:16:37.853Z,101559.94
2022-12-26T08:19:43.801Z,101554.31
2022-12-26T08:22:48.951Z,101545.42
2022-12-26T08:26:05.233Z,101542.92
2022-12-26T08:29:16.460Z,101548.91
2022-12-26T08:32:23.216Z,101543.66
2022-12-26T08:35:32.121Z,101541.94
2022-12-26T08:38:37.903Z,101537.98
2022-12-26T08:41:44.040Z,101529.55
2022-12-26T08:44:49.854Z,101533.81
2022-12-26T08:47:56.277Z,101525.12
2022-12-26T08:51:07.305Z,101527.88
2022-12-26T08:54:15.879Z,101524.39
2022-12-26T08:57:22.836Z,101513.03
2022-12-26T09:00:32.908Z,101516.98
2022-12-26T09:03:41.479Z,101518.53
2022-12-26T09:06:49.825Z,101528.02
2022-12-26T09:09:56.016Z,101526.34
2022-12-26T09:13:03.165Z,101518.27
2022-12-26T09:16:08.133Z,101529.19
2022-12-26T09:19:15.235Z,101526.42
2022-12-26T09:22:40.696Z,101528.55
2022-12-26T09:25:47.242Z,101530.48
2022-12-26T09:28:53.591Z,101541.53
2022-12-26T09:32:00.119Z,101536.17
2022-12-26T09:35:09.138Z,101535.97
2022-12-26T09:38:16.752Z,101539.30
2022-12-26T09:41:38.258Z,101544.31
2022-12-26T09:44:54.330Z,101539.58
2022-12-26T09:48:11.729Z,101555.24
2022-12-26T09:51:17.285Z,101537.75
2022-12-26T09:54:25.459Z,101546.66
2022-12-26T09:57:40.200Z,101547.34
2022-12-26T10:01:07.891Z,101539.73
2022-12-26T10:04:15.481Z,101541.56
2022-12-26T10:07:55.645Z,101546.09
2022-12-26T10:11:16.475Z,101539.33
2022-12-26T10:14:56.158Z,101528.91
2022-12-26T10:18:28.604Z,101531.56
2022-12-26T10:22:05.485Z,101526.66
2022-12-26T10:25:13.023Z,101520.52
2022-12-26T10:28:19.384Z,101522.14
2022-12-26T10:31:45.909Z,101524.45
2022-12-26T10:34:56.805Z,101522.83
2022-12-26T10:38:02.351Z,101532.41
2022-12-26T10:41:08.434Z,101536.27
2022-12-26T10:44:13.877Z,101534.75
2022-12-26T10:47:30.281Z,101532.83
2022-12-26T10:50:42.027Z,101533.98
2022-12-26T10:53:47.958Z,101535.44
2022-12-26T10:56:53.133Z,101531.48
2022-12-26T11:00:10.580Z,101523.77
2022-12-26T11:03:29.057Z,101523.77
2022-12-26T11:06:36.381Z,101518.84
2022-12-26T11:09:57.015Z,101519.61
2022-12-26T11:13:16.179Z,101518.73
2022-12-26T11:16:22.625Z,101511.97
2022-12-26T11:19:52.190Z,101515.03
2022-12-26T11:22:59.865Z,101516.28
2022-12-26T11:26:10.809Z,101519.66
2022-12-26T11:29:48.480Z,101520.64
2022-12-26T11:33:02.339Z,101525.07
2022-12-26T11:36:20.489Z,101521.99
2022-12-26T11:39:41.972Z,101515.59
2022-12-26T11:42:47.980Z,101521.37
2022-12-26T11:45:57.610Z,101519.19
2022-12-26T11:49:06.347Z,101520.54
2022-12-26T11:52:12.089Z,101530.17
2022-12-26T11:55:19.021Z,101534.53
2022-12-26T11:58:36.764Z,101531.87
2022-12-26T12:01:42.024Z,101536.61
2022-12-26T12:04:48.515Z,101534.67
2022-12-26T12:08:16.296Z,101540.94
2022-12-26T12:11:35.706Z,101546.66
2022-12-26T12:14:54.361Z,101545.99
2022-12-26T12:18:35.957Z,101551.70
2022-12-26T12:22:10.203Z,101554.36
2022-12-26T12:25:39.726Z,101553.09
2022-12-26T12:28:52.630Z,101548.77
2022-12-26T12:32:11.918Z,101550.50
2022-12-26T12:35:46.771Z,101554.20
2022-12-26T12:39:54.100Z,101540.89
2022-12-26T12:43:23.939Z,101540.16
2022-12-26T12:47:07.792Z,101537.67
2022-12-26T12:50:32.907Z,101539.89
2022-12-26T12:54:17.810Z,101545.22
2022-12-26T12:57:47.021Z,101539.80
2022-12-26T13:01:09.225Z,101552.25
2022-12-26T13:04:38.839Z,101540.01
2022-12-26T13:07:51.869Z,101541.36
2022-12-26T13:11:09.924Z,101547.55
2022-12-26T13:14:42.676Z,101545.41
2022-12-26T13:18:27.267Z,101554.68
2022-12-26T13:21:33.217Z,101561.98
2022-12-26T13:24:59.857Z,101557.45
2022-12-26T13:28:10.908Z,101565.94
2022-12-26T13:31:25.738Z,101566.14
2022-12-26T13:34:36.044Z,101568.69
2022-12-26T13:37:59.116Z,101565.03
2022-12-26T13:41:34.550Z,101571.91
2022-12-26T13:44:41.841Z,101569.00
2022-12-26T13:47:51.179Z,101567.75
2022-12-26T13:51:11.241Z,101567.85
2022-12-26T13:54:21.919Z,101568.94
2022-12-26T13:57:50.004Z,101565.55
2022-12-26T14:01:02.015Z,101568.05
2022-12-26T14:04:32.469Z,101556.97
2022-12-26T14:08:16.518Z,101555.14
2022-12-26T14:11:50.810Z,101549.31
2022-12-26T14:15:17.704Z,101553.95
2022-12-26T14:18:36.771Z,101543.88
2022-12-26T14:21:41.535Z,101540.42
2022-12-26T14:29:00.801Z,101545.22
2022-12-26T14:32:39.335Z,101546.98
2022-12-26T14:35:57.065Z,101546.88
2022-12-26T14:39:17.983Z,101554.90
2022-12-26T14:42:58.774Z,101545.84
2022-12-26T14:46:06.174Z,101547.86
2022-12-26T14:49:41.413Z,101553.64
2022-12-26T14:52:54.570Z,101546.41
2022-12-26T14:56:24.985Z,101548.50
2022-12-26T14:59:45.765Z,101546.47
2022-12-26T15:02:51.631Z,101548.39
2022-12-26T15:06:00.160Z,101551.25
2022-12-26T15:09:52.741Z,101543.97
2022-12-26T15:13:29.186Z,101540.11
2022-12-26T15:16:44.528Z,101542.72
2022-12-26T15:20:17.515Z,101548.80
2022-12-26T15:23:50.876Z,101552.25
2022-12-26T15:27:35.830Z,101552.55
2022-12-26T15:31:13.416Z,101553.80
2022-12-26T15:34:55.289Z,101557.96
2022-12-26T15:38:24.465Z,101566.66
2022-12-26T15:41:41.091Z,101564.05
2022-12-26T15:45:04.816Z,101561.86
2022-12-26T15:48:40.688Z,101564.16
2022-12-26T15:52:16.267Z,101564.47
2022-12-26T15:55:42.729Z,101558.84
2022-12-26T15:59:15.324Z,101561.45
2022-12-26T16:02:44.533Z,101553.75
2022-12-26T16:06:14.811Z,101539.95
2022-12-26T16:09:50.789Z,101541.31
2022-12-26T16:12:58.561Z,101538.87
2022-12-26T16:16:08.628Z,101526.12
2022-12-26T16:19:34.891Z,101526.12
2022-12-26T16:22:56.801Z,101523.78
2022-12-26T16:26:03.732Z,101519.52
2022-12-26T16:29:10.721Z,101517.89
2022-12-26T16:32:20.795Z,101523.36
2022-12-26T16:35:36.101Z,101530.22
2022-12-26T16:38:43.816Z,101534.55
2022-12-26T16:41:49.541Z,101537.52
2022-12-26T16:44:55.991Z,101537.81
2022-12-26T16:48:02.138Z,101540.31
2022-12-26T16:51:20.849Z,101541.67
2022-12-26T16:54:32.276Z,101538.75
2022-12-26T16:57:41.146Z,101523.28
2022-12-26T17:00:46.081Z,101509.86
2022-12-26T17:04:16.261Z,101511.89
2022-12-26T17:07:23.355Z,101516.32
2022-12-26T17:10:44.342Z,101523.86
2022-12-26T17:13:51.764Z,101519.33
2022-12-26T17:17:02.385Z,101522.98
2022-12-26T17:20:12.420Z,101531.00
2022-12-26T17:23:43.216Z,101536.52
2022-12-26T17:26:48.230Z,101540.42
2022-12-26T17:30:15.902Z,101548.06
2022-12-26T17:33:41.422Z,101544.75
2022-12-26T17:37:17.951Z,101539.84
2022-12-26T17:39:55.792Z,101517.67
2022-12-26T17:43:06.253Z,101497.88
2022-12-26T17:46:12.509Z,101482.03
2022-12-26T17:49:18.853Z,101487.39
2022-12-26T17:52:29.469Z,101484.13
2022-12-26T17:55:38.504Z,101483.34
2022-12-26T17:58:43.874Z,101496.14
2022-12-26T18:01:49.696Z,101506.45
2022-12-26T18:04:58.508Z,101514.09
2022-12-26T18:08:05.722Z,101514.87
2022-12-26T18:11:14.465Z,101511.59
2022-12-26T18:14:24.498Z,101513.31
2022-12-26T18:17:32.180Z,101513.31
2022-12-26T18:20:42.142Z,101511.39
2022-12-26T18:23:48.262Z,101512.64
2022-12-26T18:26:54.238Z,101515.28
2022-12-26T18:30:01.696Z,101507.76
2022-12-26T18:33:08.639Z,101513.58
2022-12-26T18:36:16.624Z,101511.55
2022-12-26T18:39:21.675Z,101503.84
2022-12-26T18:42:29.181Z,101509.94
2022-12-26T18:45:35.656Z,101496.82
2022-12-26T18:48:44.673Z,101496.25
2022-12-26T18:51:50.123Z,101486.62
2022-12-26T18:54:57.909Z,101487.19
2022-12-26T18:58:03.859Z,101486.98
2022-12-26T19:01:10.174Z,101479.92
2022-12-26T19:04:15.930Z,101480.02
2022-12-26T19:07:22.612Z,101475.66
2022-12-26T19:10:28.931Z,101471.66
2022-12-26T19:13:35.399Z,101458.13
2022-12-26T19:16:41.345Z,101462.38
2022-12-26T19:19:48.030Z,101458.11
2022-12-26T19:22:55.155Z,101459.25
2022-12-26T19:26:01.364Z,101447.45
2022-12-26T19:29:09.721Z,101444.27
2022-12-26T19:32:15.347Z,101435.64
2022-12-26T19:35:22.064Z,101441.45
2022-12-26T19:38:27.476Z,101440.47
2022-12-26T19:41:33.115Z,101448.12
2022-12-26T19:44:39.418Z,101447.13
2022-12-26T19:47:46.410Z,101440.98
2022-12-26T19:50:56.331Z,101445.52
2022-12-26T19:54:02.268Z,101452.75
2022-12-26T19:57:07.834Z,101459.63
2022-12-26T20:00:14.266Z,101457.34
2022-12-26T20:03:19.685Z,101443.61
2022-12-26T20:06:31.331Z,101442.88
2022-12-26T20:09:36.725Z,101448.76
2022-12-26T20:12:42.901Z,101436.59
2022-12-26T20:15:49.191Z,101434.77
2022-12-26T20:18:56.854Z,101429.25
2022-12-26T20:22:03.748Z,101430.49
2022-12-26T20:25:09.752Z,101417.91
2022-12-26T20:28:15.661Z,101425.08
2022-12-26T20:31:25.123Z,101427.89
2022-12-26T20:34:31.741Z,101422.19
2022-12-26T20:37:38.540Z,101427.70
2022-12-26T20:40:49.754Z,101420.56
2022-12-26T20:43:51.164Z,101432.44
2022-12-26T20:46:58.875Z,101432.65
2022-12-26T20:50:05.275Z,101437.31
2022-12-26T20:53:11.505Z,101413.77
2022-12-26T20:56:20.621Z,101408.00
2022-12-26T20:59:26.360Z,101416.52
2022-12-26T21:02:32.378Z,101408.52
2022-12-26T21:05:42.363Z,101415.02
2022-12-26T21:08:48.813Z,101401.59
2022-12-26T21:11:55.816Z,101400.52
2022-12-26T21:15:03.403Z,101403.22
2022-12-26T21:18:09.142Z,101421.56
2022-12-26T21:21:23.919Z,101412.20
2022-12-26T21:24:37.031Z,101408.46
2022-12-26T21:27:43.106Z,101409.98
2022-12-26T21:30:49.287Z,101404.98
2022-12-26T21:33:54.287Z,101393.19
2022-12-26T21:37:17.802Z,101379.09
2022-12-26T21:40:24.654Z,101371.97
2022-12-26T21:43:32.672Z,101378.22
2022-12-26T21:46:39.038Z,101375.04
2022-12-26T21:49:46.204Z,101379.67
2022-12-26T21:52:53.259Z,101401.70
2022-12-26T21:56:01.915Z,101389.71
2022-12-26T21:59:26.016Z,101380.76
2022-12-26T22:02:53.536Z,101382.69
2022-12-26T22:06:03.674Z,101380.45
2022-12-26T22:09:11.078Z,101381.80
2022-12-26T22:12:34.607Z,101386.06
2022-12-26T22:15:59.884Z,101397.55
2022-12-26T22:19:06.467Z,101388.03
2022-12-26T22:22:12.282Z,101398.00
2022-12-26T22:25:18.284Z,101389.42
2022-12-26T22:28:23.874Z,101394.34
2022-12-26T22:31:43.457Z,101399.84
2022-12-26T22:34:49.115Z,101388.66
2022-12-26T22:37:54.731Z,101389.06
2022-12-26T22:41:09.546Z,101376.53
2022-12-26T22:44:15.574Z,101376.53
2022-12-26T22:47:21.452Z,101382.30
2022-12-26T22:50:34.676Z,101389.84
2022-12-26T22:53:43.293Z,101384.12
2022-12-26T22:56:50.885Z,101381.36
2022-12-26T23:00:11.808Z,101374.98
2022-12-26T23:03:04.174Z,101361.86
2022-12-26T23:06:12.367Z,101371.71
2022-12-26T23:09:20.949Z,101364.35
2022-12-26T23:12:47.098Z,101361.08
2022-12-26T23:16:14.153Z,101352.00
2022-12-26T23:19:46.069Z,101337.14
2022-12-26T23:22:53.681Z,101344.77
2022-12-26T23:25:59.201Z,101335.42
2022-12-26T23:29:26.416Z,101326.07
2022-12-26T23:32:32.397Z,101326.44
2022-12-26T23:35:41.495Z,101335.05
2022-12-26T23:38:47.602Z,101330.05
2022-12-26T23:41:53.965Z,101319.52
2022-12-26T23:45:00.374Z,101316.28
2022-12-26T23:48:06.443Z,101318.20
2022-12-26T23:51:20.311Z,101314.99
2022-12-26T23:54:25.464Z,101308.34
2022-12-26T23:57:31.476Z,101319.25
